Etusivu
METAR-TAF:

METAR-TAF

Lentoasemat :

Deming, New Mexico, Yhdysvallat

Leveyspiiri: 32-15-44N, Pituuspiiri: 107-43-14W, korkeus merenpinnasta: 1315 m

Tämänhetkinen sää

Tämä raportti tehtiin 14 minuuttia sitten, kello 13.53 UTC
Tuuli 3 kn lännestä
Lämpötila -6°C
Kosteus 79%
Ilmanpaine 1024 hPa
Näkyvyys: 16.1 km
selkeää

METAR: KDMN 281353Z AUTO 28003KT 10SM CLR M06/M09 A3025 RMK AO2 SLP244 T10561094

Aika: 07:07 (14:07 UTC)

Sääennuste

Tämä raportti tehtiin 2 tuntia ja 41 minuuttia sitten, kello 11.26 UTC
Ennuste voimassa 28. päivästä klo 12 UTC - 29. päivään klo 12 UTC
Tuuli 4 kn eri suunnista
Näkyvyys: 10 km
selkeää
From 28. päivästä klo 1500 UTC
Tuuli 6 kn koillisesta
Näkyvyys: 10 km
selkeää
From 28. päivästä klo 2100 UTC
Tuuli 5 kn lännestä
Näkyvyys: 10 km
selkeää

TAF: KDMN 281126Z 2812/2912 VRB04KT P6SM SKC FM281500 05006KT P6SM SKC FM282100 26005KT P6SM SKC

Säähavainnot ja -ennusteet yli 4000 lentoasemalta (METAR- ja TAF-raportit).

Käytössä olevat sääasemat on merkitty karttaan keltaisilla ja punaisilla pisteillä.

Aseta hiiri pisteen päälle nähdäksesi sääaseman nimen.

Klikkaa sitten nähdäksesi säähavainnot ja -ennusteet.

Kartan vaihtaminen: klikkaa mustalla rastilla varustettuja vihreitä pisteitä, niin voit zoomata sisään; viivalla varustettua vihreää pistettä, niin voit zoomata ulos tai vihreitä nuolia, niin pääset viereisille kartoille.


METAR-TAF: